sensor_id;sensor_type;location;lat;lon;timestamp;noise_LAeq;noise_LA_min;noise_LA_max;noise_LA01;noise_LA95
72028;Laerm;59781;52.090;5.030;2024-03-06T00:02:06;41.21;38.18;49.25;;
72028;Laerm;59781;52.090;5.030;2024-03-06T00:04:31;41.14;37.96;44.72;;
72028;Laerm;59781;52.090;5.030;2024-03-06T00:06:57;40.93;37.80;46.98;;
72028;Laerm;59781;52.090;5.030;2024-03-06T00:09:23;41.54;37.61;45.20;;
72028;Laerm;59781;52.090;5.030;2024-03-06T00:11:50;41.01;38.50;45.95;;
72028;Laerm;59781;52.090;5.030;2024-03-06T00:14:17;40.90;38.13;43.78;;
72028;Laerm;59781;52.090;5.030;2024-03-06T00:16:43;41.12;37.87;48.67;;
72028;Laerm;59781;52.090;5.030;2024-03-06T00:19:09;41.28;38.43;44.93;;
72028;Laerm;59781;52.090;5.030;2024-03-06T00:21:35;40.78;37.86;46.10;;
72028;Laerm;59781;52.090;5.030;2024-03-06T00:24:04;40.43;37.40;42.92;;
72028;Laerm;59781;52.090;5.030;2024-03-06T00:26:30;40.63;38.00;44.82;;
72028;Laerm;59781;52.090;5.030;2024-03-06T00:28:55;40.46;37.65;44.02;;
72028;Laerm;59781;52.090;5.030;2024-03-06T00:31:21;40.31;37.69;44.86;;
72028;Laerm;59781;52.090;5.030;2024-03-06T00:33:47;40.62;37.60;45.76;;
72028;Laerm;59781;52.090;5.030;2024-03-06T00:36:13;40.37;38.30;42.39;;
72028;Laerm;59781;52.090;5.030;2024-03-06T00:38:39;40.19;37.47;42.67;;
72028;Laerm;59781;52.090;5.030;2024-03-06T00:41:05;40.35;37.92;43.31;;
72028;Laerm;59781;52.090;5.030;2024-03-06T00:43:30;40.27;37.89;43.60;;
72028;Laerm;59781;52.090;5.030;2024-03-06T00:45:56;40.29;38.06;42.96;;
72028;Laerm;59781;52.090;5.030;2024-03-06T00:48:22;40.22;37.75;43.92;;
72028;Laerm;59781;52.090;5.030;2024-03-06T00:50:48;40.27;37.38;42.37;;
72028;Laerm;59781;52.090;5.030;2024-03-06T00:53:14;40.53;37.69;43.32;;
72028;Laerm;59781;52.090;5.030;2024-03-06T00:55:39;41.39;38.15;48.22;;
72028;Laerm;59781;52.090;5.030;2024-03-06T00:58:05;41.23;38.60;45.09;;
72028;Laerm;59781;52.090;5.030;2024-03-06T01:00:32;41.36;38.73;47.82;;
72028;Laerm;59781;52.090;5.030;2024-03-06T01:02:58;40.72;38.46;46.13;;
72028;Laerm;59781;52.090;5.030;2024-03-06T01:05:23;41.26;38.41;44.70;;
72028;Laerm;59781;52.090;5.030;2024-03-06T01:07:49;40.91;38.22;43.85;;
72028;Laerm;59781;52.090;5.030;2024-03-06T01:10:15;40.73;37.83;45.98;;
72028;Laerm;59781;52.090;5.030;2024-03-06T01:12:41;40.66;37.98;44.24;;
72028;Laerm;59781;52.090;5.030;2024-03-06T01:15:11;40.84;38.25;44.57;;
72028;Laerm;59781;52.090;5.030;2024-03-06T01:17:37;40.74;38.13;44.09;;
72028;Laerm;59781;52.090;5.030;2024-03-06T01:20:04;40.75;37.88;46.83;;
72028;Laerm;59781;52.090;5.030;2024-03-06T01:22:35;40.92;37.19;46.11;;
72028;Laerm;59781;52.090;5.030;2024-03-06T01:25:01;41.75;37.63;49.00;;
72028;Laerm;59781;52.090;5.030;2024-03-06T01:27:27;40.45;37.22;44.90;;
72028;Laerm;59781;52.090;5.030;2024-03-06T01:29:53;40.53;37.73;45.22;;
72028;Laerm;59781;52.090;5.030;2024-03-06T01:32:19;40.68;37.95;44.02;;
72028;Laerm;59781;52.090;5.030;2024-03-06T01:34:45;40.32;37.97;42.62;;
72028;Laerm;59781;52.090;5.030;2024-03-06T01:37:11;39.93;37.67;48.55;;
72028;Laerm;59781;52.090;5.030;2024-03-06T01:39:36;39.97;37.70;44.10;;
72028;Laerm;59781;52.090;5.030;2024-03-06T01:42:03;40.19;37.52;45.42;;
72028;Laerm;59781;52.090;5.030;2024-03-06T01:44:29;40.72;38.07;44.65;;
72028;Laerm;59781;52.090;5.030;2024-03-06T01:46:55;41.41;38.24;46.41;;
72028;Laerm;59781;52.090;5.030;2024-03-06T01:49:23;40.87;37.62;47.22;;
72028;Laerm;59781;52.090;5.030;2024-03-06T01:51:53;41.16;38.25;45.38;;
72028;Laerm;59781;52.090;5.030;2024-03-06T01:54:20;41.68;37.95;47.42;;
72028;Laerm;59781;52.090;5.030;2024-03-06T01:56:48;41.62;38.13;59.74;;
72028;Laerm;59781;52.090;5.030;2024-03-06T01:59:17;40.67;37.52;45.16;;
72028;Laerm;59781;52.090;5.030;2024-03-06T02:01:45;40.65;38.08;43.95;;
72028;Laerm;59781;52.090;5.030;2024-03-06T02:04:13;40.84;37.61;44.43;;
72028;Laerm;59781;52.090;5.030;2024-03-06T02:06:40;40.58;38.09;44.82;;
72028;Laerm;59781;52.090;5.030;2024-03-06T02:09:06;40.52;37.98;43.52;;
72028;Laerm;59781;52.090;5.030;2024-03-06T02:11:36;41.02;37.84;45.85;;
72028;Laerm;59781;52.090;5.030;2024-03-06T02:14:02;40.98;38.01;47.66;;
72028;Laerm;59781;52.090;5.030;2024-03-06T02:16:32;40.66;37.94;44.29;;
72028;Laerm;59781;52.090;5.030;2024-03-06T02:18:58;40.44;38.09;43.50;;
72028;Laerm;59781;52.090;5.030;2024-03-06T02:21:25;40.58;37.93;45.00;;
72028;Laerm;59781;52.090;5.030;2024-03-06T02:23:51;40.33;37.81;42.77;;
72028;Laerm;59781;52.090;5.030;2024-03-06T02:26:18;40.20;37.76;42.87;;
72028;Laerm;59781;52.090;5.030;2024-03-06T02:28:49;40.16;37.51;42.50;;
72028;Laerm;59781;52.090;5.030;2024-03-06T02:31:19;40.36;37.59;43.44;;
72028;Laerm;59781;52.090;5.030;2024-03-06T02:33:47;40.45;38.06;43.54;;
72028;Laerm;59781;52.090;5.030;2024-03-06T02:36:14;40.28;37.91;45.78;;
72028;Laerm;59781;52.090;5.030;2024-03-06T02:38:40;39.93;37.76;41.96;;
72028;Laerm;59781;52.090;5.030;2024-03-06T02:41:06;40.23;37.97;42.46;;
72028;Laerm;59781;52.090;5.030;2024-03-06T02:43:33;40.35;38.09;43.06;;
72028;Laerm;59781;52.090;5.030;2024-03-06T02:45:59;42.64;38.11;53.72;;
72028;Laerm;59781;52.090;5.030;2024-03-06T02:48:25;41.91;37.88;53.62;;
72028;Laerm;59781;52.090;5.030;2024-03-06T02:50:51;40.18;37.46;42.29;;
72028;Laerm;59781;52.090;5.030;2024-03-06T02:53:17;40.58;37.79;45.60;;
72028;Laerm;59781;52.090;5.030;2024-03-06T02:55:43;40.37;38.05;42.97;;
72028;Laerm;59781;52.090;5.030;2024-03-06T02:58:09;40.28;37.93;46.62;;
72028;Laerm;59781;52.090;5.030;2024-03-06T03:00:34;40.30;37.78;45.59;;
72028;Laerm;59781;52.090;5.030;2024-03-06T03:03:00;39.81;37.72;42.14;;
72028;Laerm;59781;52.090;5.030;2024-03-06T03:05:26;40.46;37.01;44.74;;
72028;Laerm;59781;52.090;5.030;2024-03-06T03:07:51;41.08;38.19;46.15;;
72028;Laerm;59781;52.090;5.030;2024-03-06T03:10:18;41.28;38.55;45.76;;
72028;Laerm;59781;52.090;5.030;2024-03-06T03:12:45;42.13;38.76;49.70;;
72028;Laerm;59781;52.090;5.030;2024-03-06T03:15:10;42.32;39.51;46.60;;
72028;Laerm;59781;52.090;5.030;2024-03-06T03:17:36;42.24;39.42;47.82;;
72028;Laerm;59781;52.090;5.030;2024-03-06T03:20:03;41.92;39.12;47.70;;
72028;Laerm;59781;52.090;5.030;2024-03-06T03:22:40;42.39;39.13;48.99;;
72028;Laerm;59781;52.090;5.030;2024-03-06T03:25:10;42.17;38.40;49.15;;
72028;Laerm;59781;52.090;5.030;2024-03-06T03:27:38;43.07;38.76;47.44;;
72028;Laerm;59781;52.090;5.030;2024-03-06T03:30:08;44.25;40.70;49.99;;
72028;Laerm;59781;52.090;5.030;2024-03-06T03:32:37;43.81;40.63;47.68;;
72028;Laerm;59781;52.090;5.030;2024-03-06T03:35:07;43.57;40.17;47.04;;
72028;Laerm;59781;52.090;5.030;2024-03-06T03:37:34;42.83;39.82;45.93;;
72028;Laerm;59781;52.090;5.030;2024-03-06T03:40:00;42.89;39.33;47.07;;
72028;Laerm;59781;52.090;5.030;2024-03-06T03:42:26;43.22;40.06;46.63;;
72028;Laerm;59781;52.090;5.030;2024-03-06T03:44:52;43.58;39.68;48.14;;
72028;Laerm;59781;52.090;5.030;2024-03-06T03:47:18;43.31;39.76;46.66;;
72028;Laerm;59781;52.090;5.030;2024-03-06T03:49:44;44.23;40.46;48.05;;
72028;Laerm;59781;52.090;5.030;2024-03-06T03:52:09;44.69;40.65;48.45;;
72028;Laerm;59781;52.090;5.030;2024-03-06T03:54:35;43.33;39.84;49.15;;
72028;Laerm;59781;52.090;5.030;2024-03-06T03:57:01;43.23;39.36;47.14;;
72028;Laerm;59781;52.090;5.030;2024-03-06T03:59:27;42.07;38.54;47.06;;
72028;Laerm;59781;52.090;5.030;2024-03-06T04:01:52;42.91;38.27;51.08;;
72028;Laerm;59781;52.090;5.030;2024-03-06T04:04:18;43.72;40.16;48.42;;
72028;Laerm;59781;52.090;5.030;2024-03-06T04:06:44;41.74;38.90;49.22;;
72028;Laerm;59781;52.090;5.030;2024-03-06T04:09:11;44.57;39.10;58.25;;
72028;Laerm;59781;52.090;5.030;2024-03-06T04:11:37;43.68;39.46;48.95;;
72028;Laerm;59781;52.090;5.030;2024-03-06T04:14:04;43.84;39.45;47.40;;
72028;Laerm;59781;52.090;5.030;2024-03-06T04:16:31;43.03;39.15;47.13;;
72028;Laerm;59781;52.090;5.030;2024-03-06T04:18:57;44.26;39.80;50.11;;
72028;Laerm;59781;52.090;5.030;2024-03-06T04:21:23;44.01;40.02;47.98;;
72028;Laerm;59781;52.090;5.030;2024-03-06T04:23:48;41.95;38.27;45.69;;
72028;Laerm;59781;52.090;5.030;2024-03-06T04:26:14;43.53;39.06;49.35;;
72028;Laerm;59781;52.090;5.030;2024-03-06T04:28:40;44.15;40.82;48.31;;
72028;Laerm;59781;52.090;5.030;2024-03-06T04:31:06;43.54;40.19;47.25;;
72028;Laerm;59781;52.090;5.030;2024-03-06T04:33:33;43.10;40.48;48.35;;
72028;Laerm;59781;52.090;5.030;2024-03-06T04:36:02;42.77;39.71;48.64;;
72028;Laerm;59781;52.090;5.030;2024-03-06T04:38:29;42.35;39.60;47.04;;
72028;Laerm;59781;52.090;5.030;2024-03-06T04:40:54;42.09;39.49;45.30;;
72028;Laerm;59781;52.090;5.030;2024-03-06T04:43:20;42.65;39.64;45.35;;
72028;Laerm;59781;52.090;5.030;2024-03-06T04:45:46;43.46;40.26;48.91;;
72028;Laerm;59781;52.090;5.030;2024-03-06T04:48:12;42.76;39.72;47.55;;
72028;Laerm;59781;52.090;5.030;2024-03-06T04:50:37;42.55;39.78;50.75;;
72028;Laerm;59781;52.090;5.030;2024-03-06T04:53:03;43.45;40.04;46.45;;
72028;Laerm;59781;52.090;5.030;2024-03-06T04:55:29;43.26;40.61;45.88;;
72028;Laerm;59781;52.090;5.030;2024-03-06T04:57:56;43.26;40.03;49.86;;
72028;Laerm;59781;52.090;5.030;2024-03-06T05:00:22;42.91;40.06;48.11;;
72028;Laerm;59781;52.090;5.030;2024-03-06T05:02:48;42.83;39.62;47.59;;
72028;Laerm;59781;52.090;5.030;2024-03-06T05:05:16;45.60;41.36;53.63;;
72028;Laerm;59781;52.090;5.030;2024-03-06T05:07:43;43.82;40.78;47.20;;
72028;Laerm;59781;52.090;5.030;2024-03-06T05:10:09;43.52;40.51;48.52;;
72028;Laerm;59781;52.090;5.030;2024-03-06T05:12:35;45.31;42.78;49.22;;
72028;Laerm;59781;52.090;5.030;2024-03-06T05:15:01;46.73;43.47;51.63;;
72028;Laerm;59781;52.090;5.030;2024-03-06T05:17:26;45.47;42.23;48.18;;
72028;Laerm;59781;52.090;5.030;2024-03-06T05:19:53;45.92;42.53;57.22;;
72028;Laerm;59781;52.090;5.030;2024-03-06T05:22:20;46.44;43.91;49.28;;
72028;Laerm;59781;52.090;5.030;2024-03-06T05:24:46;48.31;43.91;75.94;;
72028;Laerm;59781;52.090;5.030;2024-03-06T05:27:12;47.39;44.59;50.18;;
72028;Laerm;59781;52.090;5.030;2024-03-06T05:29:42;47.11;43.83;50.72;;
72028;Laerm;59781;52.090;5.030;2024-03-06T05:32:08;47.01;43.46;58.73;;
72028;Laerm;59781;52.090;5.030;2024-03-06T05:34:34;45.77;43.03;48.45;;
72028;Laerm;59781;52.090;5.030;2024-03-06T05:37:01;44.93;42.02;48.95;;
72028;Laerm;59781;52.090;5.030;2024-03-06T05:39:33;45.71;42.40;59.30;;
72028;Laerm;59781;52.090;5.030;2024-03-06T05:42:04;45.65;42.51;55.99;;
72028;Laerm;59781;52.090;5.030;2024-03-06T05:44:31;50.02;42.68;73.14;;
72028;Laerm;59781;52.090;5.030;2024-03-06T05:47:02;48.95;42.51;69.50;;
72028;Laerm;59781;52.090;5.030;2024-03-06T05:49:29;45.92;41.74;58.07;;
72028;Laerm;59781;52.090;5.030;2024-03-06T05:51:55;45.42;40.97;50.73;;
72028;Laerm;59781;52.090;5.030;2024-03-06T05:54:22;44.65;41.57;48.81;;
72028;Laerm;59781;52.090;5.030;2024-03-06T05:56:51;44.11;40.62;55.35;;
72028;Laerm;59781;52.090;5.030;2024-03-06T05:59:18;44.97;40.89;58.23;;
72028;Laerm;59781;52.090;5.030;2024-03-06T06:01:44;47.61;42.13;56.32;;
72028;Laerm;59781;52.090;5.030;2024-03-06T06:04:11;44.98;41.61;55.04;;
72028;Laerm;59781;52.090;5.030;2024-03-06T06:06:39;44.32;41.67;47.60;;
72028;Laerm;59781;52.090;5.030;2024-03-06T06:09:07;44.86;42.02;61.17;;
72028;Laerm;59781;52.090;5.030;2024-03-06T06:11:33;45.26;41.86;61.06;;
72028;Laerm;59781;52.090;5.030;2024-03-06T06:13:59;45.85;42.25;52.70;;
72028;Laerm;59781;52.090;5.030;2024-03-06T06:16:25;48.52;42.26;70.13;;
72028;Laerm;59781;52.090;5.030;2024-03-06T06:18:51;44.80;42.27;48.37;;
72028;Laerm;59781;52.090;5.030;2024-03-06T06:21:18;48.03;42.80;56.10;;
72028;Laerm;59781;52.090;5.030;2024-03-06T06:23:44;46.58;42.30;64.60;;
72028;Laerm;59781;52.090;5.030;2024-03-06T06:26:10;45.38;42.30;49.55;;
72028;Laerm;59781;52.090;5.030;2024-03-06T06:28:41;47.57;42.25;57.28;;
72028;Laerm;59781;52.090;5.030;2024-03-06T06:31:07;44.90;41.92;51.77;;
72028;Laerm;59781;52.090;5.030;2024-03-06T06:33:33;45.34;42.08;52.20;;
72028;Laerm;59781;52.090;5.030;2024-03-06T06:35:59;44.96;42.02;56.40;;
72028;Laerm;59781;52.090;5.030;2024-03-06T06:38:25;45.09;41.43;52.72;;
72028;Laerm;59781;52.090;5.030;2024-03-06T06:40:50;45.47;41.37;55.28;;
72028;Laerm;59781;52.090;5.030;2024-03-06T06:43:16;45.86;41.66;59.52;;
72028;Laerm;59781;52.090;5.030;2024-03-06T06:45:42;46.54;41.00;67.05;;
72028;Laerm;59781;52.090;5.030;2024-03-06T06:48:07;46.28;42.60;54.76;;
72028;Laerm;59781;52.090;5.030;2024-03-06T06:50:35;46.11;43.00;54.97;;
72028;Laerm;59781;52.090;5.030;2024-03-06T06:53:01;48.89;43.54;68.72;;
72028;Laerm;59781;52.090;5.030;2024-03-06T06:55:27;46.15;42.25;63.35;;
72028;Laerm;59781;52.090;5.030;2024-03-06T06:57:52;45.49;42.61;51.74;;
72028;Laerm;59781;52.090;5.030;2024-03-06T07:00:20;46.30;43.11;52.24;;
72028;Laerm;59781;52.090;5.030;2024-03-06T07:02:48;47.23;42.71;66.10;;
72028;Laerm;59781;52.090;5.030;2024-03-06T07:05:15;46.64;43.00;61.14;;
72028;Laerm;59781;52.090;5.030;2024-03-06T07:07:41;46.50;43.26;62.19;;
72028;Laerm;59781;52.090;5.030;2024-03-06T07:10:07;46.67;42.95;58.21;;
72028;Laerm;59781;52.090;5.030;2024-03-06T07:12:35;46.66;44.00;55.64;;
72028;Laerm;59781;52.090;5.030;2024-03-06T07:15:01;46.77;43.91;57.73;;
72028;Laerm;59781;52.090;5.030;2024-03-06T07:17:28;46.51;43.44;54.99;;
72028;Laerm;59781;52.090;5.030;2024-03-06T07:19:54;47.42;43.73;55.01;;
72028;Laerm;59781;52.090;5.030;2024-03-06T07:22:20;47.30;44.71;53.18;;
72028;Laerm;59781;52.090;5.030;2024-03-06T07:24:45;48.04;44.54;57.23;;
72028;Laerm;59781;52.090;5.030;2024-03-06T07:27:11;48.94;45.34;63.98;;
72028;Laerm;59781;52.090;5.030;2024-03-06T07:29:40;47.15;44.12;66.26;;
72028;Laerm;59781;52.090;5.030;2024-03-06T07:32:06;46.85;44.05;52.43;;
72028;Laerm;59781;52.090;5.030;2024-03-06T07:34:33;47.75;43.88;51.58;;
72028;Laerm;59781;52.090;5.030;2024-03-06T07:36:59;49.13;45.90;59.24;;
72028;Laerm;59781;52.090;5.030;2024-03-06T07:39:25;47.81;44.60;51.41;;
72028;Laerm;59781;52.090;5.030;2024-03-06T07:41:51;47.52;44.13;58.70;;
72028;Laerm;59781;52.090;5.030;2024-03-06T07:44:17;48.01;44.39;60.53;;
72028;Laerm;59781;52.090;5.030;2024-03-06T07:46:43;49.07;45.45;61.14;;
72028;Laerm;59781;52.090;5.030;2024-03-06T07:49:08;49.42;46.31;59.12;;
72028;Laerm;59781;52.090;5.030;2024-03-06T07:51:34;48.41;45.12;57.83;;
72028;Laerm;59781;52.090;5.030;2024-03-06T07:54:02;49.13;46.08;55.73;;
72028;Laerm;59781;52.090;5.030;2024-03-06T07:56:29;49.33;46.25;56.24;;
72028;Laerm;59781;52.090;5.030;2024-03-06T07:58:55;49.09;46.07;54.56;;
72028;Laerm;59781;52.090;5.030;2024-03-06T08:01:22;49.82;46.38;68.54;;
72028;Laerm;59781;52.090;5.030;2024-03-06T08:03:49;50.67;46.86;67.80;;
72028;Laerm;59781;52.090;5.030;2024-03-06T08:06:15;48.93;45.87;56.03;;
72028;Laerm;59781;52.090;5.030;2024-03-06T08:08:43;49.39;45.57;69.76;;
72028;Laerm;59781;52.090;5.030;2024-03-06T08:11:11;49.06;44.66;67.43;;
72028;Laerm;59781;52.090;5.030;2024-03-06T08:13:38;48.87;44.99;65.12;;
72028;Laerm;59781;52.090;5.030;2024-03-06T08:16:07;49.48;45.37;64.42;;
72028;Laerm;59781;52.090;5.030;2024-03-06T08:18:36;50.61;45.72;65.87;;
72028;Laerm;59781;52.090;5.030;2024-03-06T08:21:03;48.94;46.01;58.69;;
72028;Laerm;59781;52.090;5.030;2024-03-06T08:23:31;47.99;44.08;58.82;;
72028;Laerm;59781;52.090;5.030;2024-03-06T08:25:56;46.72;43.12;56.88;;
72028;Laerm;59781;52.090;5.030;2024-03-06T08:28:22;47.51;43.57;63.40;;
72028;Laerm;59781;52.090;5.030;2024-03-06T08:30:48;47.91;43.85;65.56;;
72028;Laerm;59781;52.090;5.030;2024-03-06T08:33:13;47.72;44.47;57.55;;
72028;Laerm;59781;52.090;5.030;2024-03-06T08:35:39;47.53;44.44;56.49;;
72028;Laerm;59781;52.090;5.030;2024-03-06T08:38:05;48.55;45.37;58.58;;
72028;Laerm;59781;52.090;5.030;2024-03-06T08:40:32;47.90;44.43;57.02;;
72028;Laerm;59781;52.090;5.030;2024-03-06T08:42:57;48.18;42.90;64.93;;
72028;Laerm;59781;52.090;5.030;2024-03-06T08:45:24;48.21;43.82;67.89;;
72028;Laerm;59781;52.090;5.030;2024-03-06T08:47:50;49.46;43.25;74.73;;
72028;Laerm;59781;52.090;5.030;2024-03-06T08:50:16;49.49;43.16;67.45;;
72028;Laerm;59781;52.090;5.030;2024-03-06T08:52:42;47.60;44.16;59.63;;
72028;Laerm;59781;52.090;5.030;2024-03-06T08:55:09;49.19;45.48;69.54;;
72028;Laerm;59781;52.090;5.030;2024-03-06T08:57:36;49.80;45.68;70.53;;
72028;Laerm;59781;52.090;5.030;2024-03-06T09:00:04;48.97;45.78;62.20;;
72028;Laerm;59781;52.090;5.030;2024-03-06T09:02:30;48.97;44.41;67.73;;
72028;Laerm;59781;52.090;5.030;2024-03-06T09:04:56;46.96;43.00;67.69;;
72028;Laerm;59781;52.090;5.030;2024-03-06T09:07:21;48.51;43.35;66.95;;
72028;Laerm;59781;52.090;5.030;2024-03-06T09:09:51;49.98;44.37;68.45;;
72028;Laerm;59781;52.090;5.030;2024-03-06T09:12:20;46.58;43.48;53.69;;
72028;Laerm;59781;52.090;5.030;2024-03-06T09:14:46;47.32;43.41;64.35;;
72028;Laerm;59781;52.090;5.030;2024-03-06T09:17:11;48.58;44.66;64.62;;
72028;Laerm;59781;52.090;5.030;2024-03-06T09:19:41;48.88;45.00;62.05;;
72028;Laerm;59781;52.090;5.030;2024-03-06T09:22:07;49.53;44.69;65.71;;
72028;Laerm;59781;52.090;5.030;2024-03-06T09:24:34;47.04;42.31;58.20;;
72028;Laerm;59781;52.090;5.030;2024-03-06T09:27:04;49.62;42.77;71.83;;
72028;Laerm;59781;52.090;5.030;2024-03-06T09:29:30;47.22;43.17;64.43;;
72028;Laerm;59781;52.090;5.030;2024-03-06T09:31:56;46.08;42.14;60.09;;
72028;Laerm;59781;52.090;5.030;2024-03-06T09:34:22;46.23;41.17;74.11;;
72028;Laerm;59781;52.090;5.030;2024-03-06T09:36:50;47.73;42.12;68.73;;
72028;Laerm;59781;52.090;5.030;2024-03-06T09:39:18;46.39;42.84;54.18;;
72028;Laerm;59781;52.090;5.030;2024-03-06T09:41:49;46.62;43.16;58.65;;
72028;Laerm;59781;52.090;5.030;2024-03-06T09:44:17;49.53;44.03;60.04;;
72028;Laerm;59781;52.090;5.030;2024-03-06T09:46:47;48.33;43.83;55.30;;
72028;Laerm;59781;52.090;5.030;2024-03-06T09:49:22;47.60;42.83;65.32;;
72028;Laerm;59781;52.090;5.030;2024-03-06T09:51:49;49.75;43.13;66.11;;
72028;Laerm;59781;52.090;5.030;2024-03-06T09:54:16;47.95;43.45;61.33;;
72028;Laerm;59781;52.090;5.030;2024-03-06T09:56:49;46.41;42.64;57.90;;
72028;Laerm;59781;52.090;5.030;2024-03-06T09:59:15;53.75;43.25;70.95;;
72028;Laerm;59781;52.090;5.030;2024-03-06T10:01:57;47.79;42.62;55.48;;
72028;Laerm;59781;52.090;5.030;2024-03-06T10:04:28;46.98;41.27;72.26;;
72028;Laerm;59781;52.090;5.030;2024-03-06T10:06:59;43.83;41.03;50.40;;
72028;Laerm;59781;52.090;5.030;2024-03-06T10:09:27;43.91;40.68;54.02;;
72028;Laerm;59781;52.090;5.030;2024-03-06T10:11:53;49.81;41.50;73.53;;
72028;Laerm;59781;52.090;5.030;2024-03-06T10:14:21;47.27;42.09;66.13;;
72028;Laerm;59781;52.090;5.030;2024-03-06T10:17:03;47.83;42.53;57.71;;
72028;Laerm;59781;52.090;5.030;2024-03-06T10:19:29;45.16;41.45;52.45;;
72028;Laerm;59781;52.090;5.030;2024-03-06T10:21:57;47.07;42.02;65.36;;
72028;Laerm;59781;52.090;5.030;2024-03-06T10:24:28;47.73;41.75;64.38;;
72028;Laerm;59781;52.090;5.030;2024-03-06T10:26:58;45.63;42.44;57.48;;
72028;Laerm;59781;52.090;5.030;2024-03-06T10:29:28;46.65;41.86;61.89;;
72028;Laerm;59781;52.090;5.030;2024-03-06T10:31:57;45.26;40.81;60.86;;
72028;Laerm;59781;52.090;5.030;2024-03-06T10:34:28;45.98;41.97;50.95;;
72028;Laerm;59781;52.090;5.030;2024-03-06T10:37:02;44.74;40.95;57.87;;
72028;Laerm;59781;52.090;5.030;2024-03-06T10:39:35;45.95;40.70;54.70;;
72028;Laerm;59781;52.090;5.030;2024-03-06T10:42:07;44.13;39.78;59.60;;
72028;Laerm;59781;52.090;5.030;2024-03-06T10:44:35;52.86;39.71;71.82;;
72028;Laerm;59781;52.090;5.030;2024-03-06T10:47:05;48.38;39.97;65.81;;
72028;Laerm;59781;52.090;5.030;2024-03-06T10:49:32;45.70;40.26;57.80;;
72028;Laerm;59781;52.090;5.030;2024-03-06T10:52:04;47.46;41.16;62.80;;
72028;Laerm;59781;52.090;5.030;2024-03-06T10:54:34;44.26;39.75;61.34;;
72028;Laerm;59781;52.090;5.030;2024-03-06T10:57:02;45.42;39.90;71.69;;
72028;Laerm;59781;52.090;5.030;2024-03-06T10:59:29;46.54;39.89;60.99;;
72028;Laerm;59781;52.090;5.030;2024-03-06T11:01:57;45.14;39.95;58.76;;
72028;Laerm;59781;52.090;5.030;2024-03-06T11:04:27;44.96;40.02;65.36;;
72028;Laerm;59781;52.090;5.030;2024-03-06T11:07:02;45.46;40.74;60.54;;
72028;Laerm;59781;52.090;5.030;2024-03-06T11:09:37;47.69;40.37;74.95;;
72028;Laerm;59781;52.090;5.030;2024-03-06T11:12:06;45.24;40.36;58.66;;
72028;Laerm;59781;52.090;5.030;2024-03-06T11:14:36;48.98;40.39;70.36;;
72028;Laerm;59781;52.090;5.030;2024-03-06T11:17:08;46.62;40.03;64.26;;
72028;Laerm;59781;52.090;5.030;2024-03-06T11:28:30;44.23;40.03;62.96;;
72028;Laerm;59781;52.090;5.030;2024-03-06T11:33:37;44.76;38.78;68.62;;
72028;Laerm;59781;52.090;5.030;2024-03-06T11:38:59;50.79;38.83;76.29;;
72028;Laerm;59781;52.090;5.030;2024-03-06T11:41:31;43.93;39.21;56.98;;
72028;Laerm;59781;52.090;5.030;2024-03-06T11:44:00;49.49;38.73;75.63;;
72028;Laerm;59781;52.090;5.030;2024-03-06T11:49:23;52.11;39.81;72.59;;
72028;Laerm;59781;52.090;5.030;2024-03-06T11:52:08;44.37;39.82;62.96;;
72028;Laerm;59781;52.090;5.030;2024-03-06T11:54:35;43.98;39.00;60.28;;
72028;Laerm;59781;52.090;5.030;2024-03-06T11:57:04;44.69;38.97;63.48;;
72028;Laerm;59781;52.090;5.030;2024-03-06T11:59:34;46.18;38.92;65.69;;
72028;Laerm;59781;52.090;5.030;2024-03-06T12:02:04;46.88;39.45;58.73;;
72028;Laerm;59781;52.090;5.030;2024-03-06T12:04:33;43.56;38.79;55.17;;
72028;Laerm;59781;52.090;5.030;2024-03-06T12:07:00;46.75;39.27;68.17;;
72028;Laerm;59781;52.090;5.030;2024-03-06T12:09:39;45.69;39.77;67.08;;
72028;Laerm;59781;52.090;5.030;2024-03-06T12:12:07;44.91;39.26;57.36;;
72028;Laerm;59781;52.090;5.030;2024-03-06T12:14:35;44.32;38.52;58.95;;
72028;Laerm;59781;52.090;5.030;2024-03-06T12:17:02;43.77;39.17;56.72;;
72028;Laerm;59781;52.090;5.030;2024-03-06T12:19:34;42.92;38.65;53.19;;
72028;Laerm;59781;52.090;5.030;2024-03-06T12:22:01;43.54;38.67;60.60;;
72028;Laerm;59781;52.090;5.030;2024-03-06T12:24:29;44.06;38.44;64.68;;
72028;Laerm;59781;52.090;5.030;2024-03-06T12:27:06;42.79;38.55;57.02;;
72028;Laerm;59781;52.090;5.030;2024-03-06T12:29:35;47.47;39.32;64.18;;
72028;Laerm;59781;52.090;5.030;2024-03-06T12:32:04;45.57;39.73;61.27;;
72028;Laerm;59781;52.090;5.030;2024-03-06T12:34:30;44.59;38.51;65.30;;
72028;Laerm;59781;52.090;5.030;2024-03-06T12:36:56;43.29;39.13;53.74;;
72028;Laerm;59781;52.090;5.030;2024-03-06T12:39:32;53.34;38.98;80.72;;
72028;Laerm;59781;52.090;5.030;2024-03-06T12:41:59;44.96;38.85;65.80;;
72028;Laerm;59781;52.090;5.030;2024-03-06T12:44:24;44.73;38.76;62.41;;
72028;Laerm;59781;52.090;5.030;2024-03-06T12:46:50;46.50;38.67;60.77;;
72028;Laerm;59781;52.090;5.030;2024-03-06T12:49:16;44.90;40.05;68.68;;
72028;Laerm;59781;52.090;5.030;2024-03-06T12:51:43;43.15;39.05;51.77;;
72028;Laerm;59781;52.090;5.030;2024-03-06T12:54:09;44.34;39.25;61.70;;
72028;Laerm;59781;52.090;5.030;2024-03-06T12:56:35;43.55;39.17;51.94;;
72028;Laerm;59781;52.090;5.030;2024-03-06T12:59:01;59.70;39.77;78.15;;
72028;Laerm;59781;52.090;5.030;2024-03-06T13:01:27;43.92;39.05;56.39;;
72028;Laerm;59781;52.090;5.030;2024-03-06T13:03:52;43.40;39.03;51.37;;
72028;Laerm;59781;52.090;5.030;2024-03-06T13:06:18;43.36;38.82;53.54;;
72028;Laerm;59781;52.090;5.030;2024-03-06T13:08:44;43.96;39.39;63.73;;
72028;Laerm;59781;52.090;5.030;2024-03-06T13:11:09;43.25;38.50;60.85;;
72028;Laerm;59781;52.090;5.030;2024-03-06T13:13:35;43.89;39.04;55.69;;
72028;Laerm;59781;52.090;5.030;2024-03-06T13:16:02;43.06;38.70;53.52;;
72028;Laerm;59781;52.090;5.030;2024-03-06T13:18:27;45.09;38.70;55.79;;
72028;Laerm;59781;52.090;5.030;2024-03-06T13:20:53;44.29;39.07;61.91;;
72028;Laerm;59781;52.090;5.030;2024-03-06T13:23:19;43.65;39.06;55.23;;
72028;Laerm;59781;52.090;5.030;2024-03-06T13:25:45;43.08;39.17;50.44;;
72028;Laerm;59781;52.090;5.030;2024-03-06T13:28:12;43.88;38.72;57.69;;
72028;Laerm;59781;52.090;5.030;2024-03-06T13:30:38;43.96;38.53;54.66;;
72028;Laerm;59781;52.090;5.030;2024-03-06T13:33:05;44.12;38.24;57.91;;
72028;Laerm;59781;52.090;5.030;2024-03-06T13:35:31;45.08;40.15;61.25;;
72028;Laerm;59781;52.090;5.030;2024-03-06T13:37:57;44.42;38.66;52.58;;
72028;Laerm;59781;52.090;5.030;2024-03-06T13:40:23;43.16;38.38;57.66;;
72028;Laerm;59781;52.090;5.030;2024-03-06T13:42:51;44.25;38.44;55.70;;
72028;Laerm;59781;52.090;5.030;2024-03-06T13:45:17;43.83;38.78;55.57;;
72028;Laerm;59781;52.090;5.030;2024-03-06T13:47:44;44.49;38.58;60.69;;
72028;Laerm;59781;52.090;5.030;2024-03-06T13:50:13;43.79;39.18;55.70;;
72028;Laerm;59781;52.090;5.030;2024-03-06T13:52:43;44.39;38.96;53.28;;
72028;Laerm;59781;52.090;5.030;2024-03-06T13:55:09;43.69;38.46;58.39;;
72028;Laerm;59781;52.090;5.030;2024-03-06T13:57:37;42.77;38.28;52.80;;
72028;Laerm;59781;52.090;5.030;2024-03-06T14:00:06;43.81;38.56;52.56;;
72028;Laerm;59781;52.090;5.030;2024-03-06T14:02:39;43.41;38.80;57.83;;